No particular awareness of the weather is required.    There are no Weather-warnings


Meteo18 Weather Cam more information Meteo18 Weather Cam


Thunder radar more information blitzortung!


Rain radar more information rain snow radar


Visit our other weather sites:

Template documentation
and downloads

And another site



Weather Underground History page Text

Daily Summary for October 5, 2017 Units:  Both    English   Metric
« Previous Day
Next Day »
Daily Weekly Monthly Yearly Custom
  High: Low: Average:
Temperature: TemperatureC °F /  -17.8 °C 4.6 °F /  -15.2 °C 12.1 °F /  -11.1 °C
Dew Point: DewpointC °F /  -17.8 °C 4.0 °F /  -15.6 °C 9.3 °F /  -12.6 °C
Humidity: Humidity % 54 % 84 %
Wind Speed: WindSpeedKMH mph /  0 km/h - 5.6 mph /  9 km/h
Wind Gust: WindSpeedGustKMH mph /  0 km/h - -
Wind:- - WSW
Pressure: PressurehPa in /  0 hPa 1020.5 in /  34554.1 hPa -
Precipitation: 0.5 in /  12.7 mm    
Historical Graphs
 
 
Tabular Data for October 5, 2017
Time Temperature Dew Point Pressure Wind Wind Speed Wind Gust Humidity Rainfall Rate (Hourly)
TemperatureC °F /  -17.8 °C DewpointC °F /  -17.8 °C PressurehPa in /  0 hPa Calm     Humidity % HourlyPrecipMM in /  0 mm
00:02 8.7 °F /  -12.9 °C 7.8 °F /  -13.4 °C 1025.3 in /  34716.7 hPa Calm   1.6 mph /  2.6 km/h 94 % 0.0 in /  0 mm
00:07 8.8 °F /  -12.9 °C 7.9 °F /  -13.4 °C 1025.3 in /  34716.7 hPa Calm   1.6 mph /  2.6 km/h 94 % 0.0 in /  0 mm
00:12 8.8 °F /  -12.9 °C 7.9 °F /  -13.4 °C 1025.3 in /  34716.7 hPa Calm   1.6 mph /  2.6 km/h 94 % 0.0 in /  0 mm
00:17 8.7 °F /  -12.9 °C 7.8 °F /  -13.4 °C 1025.3 in /  34716.7 hPa Calm   1.6 mph /  2.6 km/h 94 % 0.0 in /  0 mm
00:32 8.7 °F /  -12.9 °C 7.8 °F /  -13.4 °C 1025.3 in /  34716.7 hPa Calm   1.6 mph /  2.6 km/h 94 % 0.0 in /  0 mm
00:42 8.6 °F /  -13 °C 7.7 °F /  -13.5 °C 1025.3 in /  34716.7 hPa Calm     94 % 0.0 in /  0 mm
00:47 8.6 °F /  -13 °C 7.7 °F /  -13.5 °C 1025.3 in /  34716.7 hPa Calm     94 % 0.0 in /  0 mm
00:52 8.7 °F /  -12.9 °C 7.8 °F /  -13.4 °C 1025.3 in /  34716.7 hPa Calm     94 % 0.0 in /  0 mm
00:57 8.6 °F /  -13 °C 7.7 °F /  -13.5 °C 1025.3 in /  34716.7 hPa Calm     94 % 0.0 in /  0 mm
01:07 8.4 °F /  -13.1 °C 7.3 °F /  -13.7 °C 1024.9 in /  34703.1 hPa Calm     93 % 0.0 in /  0 mm
01:12 8.3 °F /  -13.2 °C 7.2 °F /  -13.8 °C 1025.3 in /  34716.7 hPa Calm     93 % 0.0 in /  0 mm
01:22 8.2 °F /  -13.2 °C 7.3 °F /  -13.7 °C 1024.9 in /  34703.1 hPa Calm     94 % 0.0 in /  0 mm
01:27 8.1 °F /  -13.3 °C 7.2 °F /  -13.8 °C 1024.9 in /  34703.1 hPa Calm     94 % 0.0 in /  0 mm
01:32 7.9 °F /  -13.4 °C 7.0 °F /  -13.9 °C 1024.9 in /  34703.1 hPa Calm     94 % 0.0 in /  0 mm
01:37 7.9 °F /  -13.4 °C 7.0 °F /  -13.9 °C 1024.9 in /  34703.1 hPa Calm     94 % 0.0 in /  0 mm
01:42 8.1 °F /  -13.3 °C 7.3 °F /  -13.7 °C 1024.9 in /  34703.1 hPa Calm     95 % 0.0 in /  0 mm
01:52 8.3 °F /  -13.2 °C 7.5 °F /  -13.6 °C 1024.9 in /  34703.1 hPa Calm     95 % 0.0 in /  0 mm
01:57 8.1 °F /  -13.3 °C 7.2 °F /  -13.8 °C 1024.9 in /  34703.1 hPa Calm     94 % 0.0 in /  0 mm
02:02 7.9 °F /  -13.4 °C 7.0 °F /  -13.9 °C 1024.9 in /  34703.1 hPa Calm     94 % 0.0 in /  0 mm
02:07 7.9 °F /  -13.4 °C 7.1 °F /  -13.8 °C 1024.9 in /  34703.1 hPa Calm     95 % 0.0 in /  0 mm
02:12 7.8 °F /  -13.4 °C 6.9 °F /  -13.9 °C 1024.9 in /  34703.1 hPa Calm     94 % 0.0 in /  0 mm
02:17 7.6 °F /  -13.6 °C 6.7 °F /  -14.1 °C 1024.9 in /  34703.1 hPa Calm     94 % 0.0 in /  0 mm
02:22 7.6 °F /  -13.6 °C 6.9 °F /  -13.9 °C 1024.9 in /  34703.1 hPa Calm     95 % 0.0 in /  0 mm
02:32 7.6 °F /  -13.6 °C 6.9 °F /  -13.9 °C 1024.9 in /  34703.1 hPa Calm     95 % 0.0 in /  0 mm
02:37 7.4 °F /  -13.7 °C 6.7 °F /  -14.1 °C 1024.9 in /  34703.1 hPa Calm     95 % 0.0 in /  0 mm
02:42 7.2 °F /  -13.8 °C 6.5 °F /  -14.2 °C 1024.9 in /  34703.1 hPa Calm     95 % 0.0 in /  0 mm
02:47 7.1 °F /  -13.8 °C 6.4 °F /  -14.2 °C 1024.6 in /  34693 hPa Calm     95 % 0.0 in /  0 mm
02:52 7.0 °F /  -13.9 °C 6.3 °F /  -14.3 °C 1024.6 in /  34693 hPa Calm     95 % 0.0 in /  0 mm
02:57 7.1 °F /  -13.8 °C 6.5 °F /  -14.2 °C 1024.9 in /  34703.1 hPa Calm     96 % 0.0 in /  0 mm
03:02 7.0 °F /  -13.9 °C 6.3 °F /  -14.3 °C 1024.6 in /  34693 hPa Calm     95 % 0.0 in /  0 mm
03:07 6.9 °F /  -13.9 °C 6.3 °F /  -14.3 °C 1024.6 in /  34693 hPa Calm     96 % 0.0 in /  0 mm
03:12 6.9 °F /  -13.9 °C 6.3 °F /  -14.3 °C 1024.6 in /  34693 hPa Calm     96 % 0.0 in /  0 mm
03:17 6.9 °F /  -13.9 °C 6.2 °F /  -14.3 °C 1024.6 in /  34693 hPa Calm     95 % 0.0 in /  0 mm
03:22 6.7 °F /  -14.1 °C 6.0 °F /  -14.4 °C 1024.3 in /  34682.8 hPa Calm     95 % 0.0 in /  0 mm
03:27 6.6 °F /  -14.1 °C 5.9 °F /  -14.5 °C 1024.3 in /  34682.8 hPa Calm     95 % 0.0 in /  0 mm
03:32 6.6 °F /  -14.1 °C 6.0 °F /  -14.4 °C 1024.3 in /  34682.8 hPa Calm     96 % 0.3 in /  7.62 mm
03:37 6.5 °F /  -14.2 °C 5.9 °F /  -14.5 °C 1024.3 in /  34682.8 hPa Calm     96 % 0.3 in /  7.62 mm
03:42 6.5 °F /  -14.2 °C 5.9 °F /  -14.5 °C 1024.3 in /  34682.8 hPa Calm     96 % 0.3 in /  7.62 mm
03:47 6.5 °F /  -14.2 °C 5.9 °F /  -14.5 °C 1024.3 in /  34682.8 hPa Calm     96 % 0.3 in /  7.62 mm
03:52 6.6 °F /  -14.1 °C 6.0 °F /  -14.4 °C 1023.9 in /  34669.3 hPa Calm     96 % 0.3 in /  7.62 mm
03:57 6.6 °F /  -14.1 °C 6.0 °F /  -14.4 °C 1023.9 in /  34669.3 hPa Calm     96 % 0.3 in /  7.62 mm
04:02 6.9 °F /  -13.9 °C 6.5 °F /  -14.2 °C 1023.9 in /  34669.3 hPa Calm     97 % 0.3 in /  7.62 mm
04:07 6.7 °F /  -14.1 °C 6.1 °F /  -14.4 °C 1023.9 in /  34669.3 hPa Calm     96 % 0.3 in /  7.62 mm
04:12 6.7 °F /  -14.1 °C 6.1 °F /  -14.4 °C 1023.6 in /  34659.1 hPa Calm     96 % 0.3 in /  7.62 mm
04:17 6.7 °F /  -14.1 °C 6.1 °F /  -14.4 °C 1023.6 in /  34659.1 hPa Calm     96 % 0.3 in /  7.62 mm
04:22 6.7 °F /  -14.1 °C 6.1 °F /  -14.4 °C 1023.6 in /  34659.1 hPa Calm     96 % 0.3 in /  7.62 mm
04:32 6.4 °F /  -14.2 °C 5.8 °F /  -14.6 °C 1023.6 in /  34659.1 hPa Calm     96 % 0.0 in /  0 mm
04:37 6.4 °F /  -14.2 °C 5.8 °F /  -14.6 °C 1023.6 in /  34659.1 hPa Calm     96 % 0.0 in /  0 mm
04:42 6.1 °F /  -14.4 °C 5.4 °F /  -14.8 °C 1023.6 in /  34659.1 hPa Calm     95 % 0.0 in /  0 mm
04:47 5.9 °F /  -14.5 °C 5.2 °F /  -14.9 °C 1023.6 in /  34659.1 hPa Calm     95 % 0.0 in /  0 mm
04:52 5.8 °F /  -14.6 °C 5.2 °F /  -14.9 °C 1023.6 in /  34659.1 hPa Calm     96 % 0.0 in /  0 mm
05:02 5.9 °F /  -14.5 °C 5.3 °F /  -14.8 °C 1023.2 in /  34645.6 hPa Calm     96 % 0.0 in /  0 mm
05:22 6.6 °F /  -14.1 °C 6.2 °F /  -14.3 °C 1023.6 in /  34659.1 hPa Calm     97 % 0.0 in /  0 mm
05:27 6.6 °F /  -14.1 °C 6.2 °F /  -14.3 °C 1023.6 in /  34659.1 hPa Calm     97 % 0.0 in /  0 mm
05:32 6.9 °F /  -13.9 °C 6.5 °F /  -14.2 °C 1023.2 in /  34645.6 hPa Calm     97 % 0.0 in /  0 mm
05:37 6.8 °F /  -14 °C 6.4 °F /  -14.2 °C 1023.2 in /  34645.6 hPa Calm     97 % 0.0 in /  0 mm
05:42 6.8 °F /  -14 °C 6.4 °F /  -14.2 °C 1023.2 in /  34645.6 hPa Calm     97 % 0.0 in /  0 mm
05:47 6.9 °F /  -13.9 °C 6.5 °F /  -14.2 °C 1023.2 in /  34645.6 hPa Calm     97 % 0.0 in /  0 mm
05:52 6.8 °F /  -14 °C 6.4 °F /  -14.2 °C 1023.2 in /  34645.6 hPa Calm     97 % 0.0 in /  0 mm
05:57 6.5 °F /  -14.2 °C 5.9 °F /  -14.5 °C 1023.2 in /  34645.6 hPa Calm     96 % 0.0 in /  0 mm
06:02 6.4 °F /  -14.2 °C 5.8 °F /  -14.6 °C 1023.2 in /  34645.6 hPa Calm     96 % 0.0 in /  0 mm
06:12 6.2 °F /  -14.3 °C 5.6 °F /  -14.7 °C 1023.2 in /  34645.6 hPa Calm     96 % 0.0 in /  0 mm
06:17 6.1 °F /  -14.4 °C 5.7 °F /  -14.6 °C 1023.2 in /  34645.6 hPa Calm     97 % 0.0 in /  0 mm
06:22 6.1 °F /  -14.4 °C 5.7 °F /  -14.6 °C 1023.2 in /  34645.6 hPa Calm     97 % 0.0 in /  0 mm
06:32 5.7 °F /  -14.6 °C 5.1 °F /  -14.9 °C 1023.2 in /  34645.6 hPa Calm     96 % 0.0 in /  0 mm
06:42 5.3 °F /  -14.8 °C 4.7 °F /  -15.2 °C 1023.2 in /  34645.6 hPa Calm     96 % 0.0 in /  0 mm
06:52 5.2 °F /  -14.9 °C 4.6 °F /  -15.2 °C 1023.2 in /  34645.6 hPa Calm     96 % 0.0 in /  0 mm
07:02 4.9 °F /  -15.1 °C 4.3 °F /  -15.4 °C 1023.2 in /  34645.6 hPa Calm     96 % 0.0 in /  0 mm
07:07 4.7 °F /  -15.2 °C 4.1 °F /  -15.5 °C 1023.2 in /  34645.6 hPa Calm     96 % 0.0 in /  0 mm
07:12 4.6 °F /  -15.2 °C 4.0 °F /  -15.6 °C 1023.2 in /  34645.6 hPa Calm     96 % 0.0 in /  0 mm
07:17 4.7 °F /  -15.2 °C 4.3 °F /  -15.4 °C 1023.2 in /  34645.6 hPa Calm     97 % 0.0 in /  0 mm
07:22 4.6 °F /  -15.2 °C 4.2 °F /  -15.4 °C 1023.2 in /  34645.6 hPa Calm     97 % 0.0 in /  0 mm
07:32 4.7 °F /  -15.2 °C 4.3 °F /  -15.4 °C 1023.2 in /  34645.6 hPa Calm     97 % 0.0 in /  0 mm
07:37 4.8 °F /  -15.1 °C 4.4 °F /  -15.3 °C 1023.2 in /  34645.6 hPa Calm     97 % 0.0 in /  0 mm
07:42 4.7 °F /  -15.2 °C 4.3 °F /  -15.4 °C 1022.9 in /  34635.4 hPa Calm     97 % 0.0 in /  0 mm
07:52 4.7 °F /  -15.2 °C 4.3 °F /  -15.4 °C 1022.9 in /  34635.4 hPa Calm     97 % 0.0 in /  0 mm
07:57 4.6 °F /  -15.2 °C 4.2 °F /  -15.4 °C 1022.9 in /  34635.4 hPa Calm   1.6 mph /  2.6 km/h 97 % 0.0 in /  0 mm
08:02 4.6 °F /  -15.2 °C 4.2 °F /  -15.4 °C 1022.9 in /  34635.4 hPa Calm   1.6 mph /  2.6 km/h 97 % 0.0 in /  0 mm
08:12 5.2 °F /  -14.9 °C 4.8 °F /  -15.1 °C 1022.9 in /  34635.4 hPa South 1.6 mph /  2.6 km/h 3.2 mph /  5.1 km/h 97 % 0.0 in /  0 mm
08:17 5.8 °F /  -14.6 °C 5.4 °F /  -14.8 °C 1022.9 in /  34635.4 hPa SW 3.2 mph /  5.1 km/h 4.8 mph /  7.7 km/h 97 % 0.0 in /  0 mm
08:22 6.3 °F /  -14.3 °C 5.9 °F /  -14.5 °C 1022.9 in /  34635.4 hPa SW 1.6 mph /  2.6 km/h 6.4 mph /  10.3 km/h 97 % 0.0 in /  0 mm
08:32 6.8 °F /  -14 °C 6.5 °F /  -14.2 °C 1022.9 in /  34635.4 hPa SW 1.6 mph /  2.6 km/h 8.0 mph /  12.9 km/h 98 % 0.0 in /  0 mm
08:42 6.7 °F /  -14.1 °C 6.3 °F /  -14.3 °C 1022.9 in /  34635.4 hPa Calm   8.0 mph /  12.9 km/h 97 % 0.0 in /  0 mm
08:47 6.2 °F /  -14.3 °C 5.8 °F /  -14.6 °C 1022.9 in /  34635.4 hPa Calm   6.4 mph /  10.3 km/h 97 % 0.0 in /  0 mm
08:52 6.1 °F /  -14.4 °C 5.7 °F /  -14.6 °C 1022.9 in /  34635.4 hPa Calm   1.6 mph /  2.6 km/h 97 % 0.0 in /  0 mm
08:57 5.8 °F /  -14.6 °C 5.4 °F /  -14.8 °C 1022.9 in /  34635.4 hPa Calm   1.6 mph /  2.6 km/h 97 % 0.0 in /  0 mm
09:12 6.6 °F /  -14.1 °C 6.2 °F /  -14.3 °C 1022.9 in /  34635.4 hPa Calm   1.6 mph /  2.6 km/h 97 % 0.0 in /  0 mm
09:17 6.9 °F /  -13.9 °C 6.5 °F /  -14.2 °C 1022.9 in /  34635.4 hPa South 3.2 mph /  5.1 km/h 3.2 mph /  5.1 km/h 97 % 0.0 in /  0 mm
09:22 7.2 °F /  -13.8 °C 6.8 °F /  -14 °C 1022.9 in /  34635.4 hPa SSE 3.2 mph /  5.1 km/h 4.8 mph /  7.7 km/h 97 % 0.0 in /  0 mm
09:32 7.6 °F /  -13.6 °C 7.3 °F /  -13.7 °C 1022.9 in /  34635.4 hPa SSW 3.2 mph /  5.1 km/h 6.4 mph /  10.3 km/h 98 % 0.0 in /  0 mm
09:42 7.9 °F /  -13.4 °C 7.6 °F /  -13.6 °C 1022.9 in /  34635.4 hPa South 3.2 mph /  5.1 km/h 9.7 mph /  15.6 km/h 98 % 0.0 in /  0 mm
09:47 8.1 °F /  -13.3 °C 7.8 °F /  -13.4 °C 1022.9 in /  34635.4 hPa SSE 4.8 mph /  7.7 km/h 9.7 mph /  15.6 km/h 98 % 0.0 in /  0 mm
09:52 8.4 °F /  -13.1 °C 8.1 °F /  -13.3 °C 1022.9 in /  34635.4 hPa SSW 3.2 mph /  5.1 km/h 9.7 mph /  15.6 km/h 98 % 0.0 in /  0 mm
09:57 8.8 °F /  -12.9 °C 8.5 °F /  -13.1 °C 1022.9 in /  34635.4 hPa South 1.6 mph /  2.6 km/h 8.0 mph /  12.9 km/h 98 % 0.0 in /  0 mm
10:02 9.3 °F /  -12.6 °C 9.0 °F /  -12.8 °C 1022.9 in /  34635.4 hPa SSE 1.6 mph /  2.6 km/h 8.0 mph /  12.9 km/h 98 % 0.0 in /  0 mm
10:07 9.6 °F /  -12.4 °C 9.3 °F /  -12.6 °C 1022.9 in /  34635.4 hPa WSW 1.6 mph /  2.6 km/h 8.0 mph /  12.9 km/h 98 % 0.0 in /  0 mm
10:17 9.9 °F /  -12.3 °C 9.4 °F /  -12.6 °C 1023.2 in /  34645.6 hPa SSW 6.4 mph /  10.3 km/h 8.0 mph /  12.9 km/h 97 % 0.0 in /  0 mm
10:22 10.1 °F /  -12.2 °C 9.6 °F /  -12.4 °C 1023.2 in /  34645.6 hPa South 4.8 mph /  7.7 km/h 9.7 mph /  15.6 km/h 97 % 0.0 in /  0 mm
10:32 10.4 °F /  -12 °C 9.9 °F /  -12.3 °C 1022.9 in /  34635.4 hPa SW 4.8 mph /  7.7 km/h 9.7 mph /  15.6 km/h 97 % 0.0 in /  0 mm
10:37 10.6 °F /  -11.9 °C 10.1 °F /  -12.2 °C 1022.9 in /  34635.4 hPa SW 6.4 mph /  10.3 km/h 9.7 mph /  15.6 km/h 97 % 0.0 in /  0 mm
10:42 10.6 °F /  -11.9 °C 10.0 °F /  -12.2 °C 1022.9 in /  34635.4 hPa SW 3.2 mph /  5.1 km/h 9.7 mph /  15.6 km/h 96 % 0.0 in /  0 mm
10:47 10.8 °F /  -11.8 °C 10.3 °F /  -12.1 °C 1022.9 in /  34635.4 hPa West 3.2 mph /  5.1 km/h 9.7 mph /  15.6 km/h 97 % 0.3 in /  7.62 mm
10:52 11.1 °F /  -11.6 °C 10.6 °F /  -11.9 °C 1022.9 in /  34635.4 hPa SW 9.7 mph /  15.6 km/h 9.7 mph /  15.6 km/h 97 % 0.3 in /  7.62 mm
10:57 11.2 °F /  -11.6 °C 10.4 °F /  -12 °C 1023.2 in /  34645.6 hPa WSW 4.8 mph /  7.7 km/h 12.9 mph /  20.8 km/h 95 % 0.3 in /  7.62 mm
11:02 11.2 °F /  -11.6 °C 10.3 °F /  -12.1 °C 1023.2 in /  34645.6 hPa SW 6.4 mph /  10.3 km/h 12.9 mph /  20.8 km/h 94 % 0.3 in /  7.62 mm
11:17 11.8 °F /  -11.2 °C 10.5 °F /  -11.9 °C 1022.9 in /  34635.4 hPa SW 3.2 mph /  5.1 km/h 16.1 mph /  25.9 km/h 92 % 0.3 in /  7.62 mm
11:22 11.9 °F /  -11.2 °C 10.3 °F /  -12.1 °C 1023.2 in /  34645.6 hPa SSE 8.0 mph /  12.9 km/h 19.3 mph /  31.1 km/h 90 % 0.3 in /  7.62 mm
11:27 12.1 °F /  -11.1 °C 10.5 °F /  -11.9 °C 1023.2 in /  34645.6 hPa WSW 9.7 mph /  15.6 km/h 19.3 mph /  31.1 km/h 90 % 0.3 in /  7.62 mm
11:32 12.3 °F /  -10.9 °C 10.5 °F /  -11.9 °C 1022.9 in /  34635.4 hPa WSW 6.4 mph /  10.3 km/h 19.3 mph /  31.1 km/h 89 % 0.3 in /  7.62 mm
11:42 12.6 °F /  -10.8 °C 10.7 °F /  -11.8 °C 1022.9 in /  34635.4 hPa SW 12.9 mph /  20.8 km/h 14.5 mph /  23.3 km/h 88 % 0.0 in /  0 mm
11:47 12.6 °F /  -10.8 °C 10.5 °F /  -11.9 °C 1022.9 in /  34635.4 hPa SW 8.0 mph /  12.9 km/h 14.5 mph /  23.3 km/h 87 % 0.0 in /  0 mm
11:52 12.9 °F /  -10.6 °C 10.8 °F /  -11.8 °C 1022.9 in /  34635.4 hPa SW 8.0 mph /  12.9 km/h 14.5 mph /  23.3 km/h 87 % 0.0 in /  0 mm
12:02 13.3 °F /  -10.4 °C 11.0 °F /  -11.7 °C 1022.9 in /  34635.4 hPa SW 11.3 mph /  18.2 km/h 14.5 mph /  23.3 km/h 86 % 0.0 in /  0 mm
12:12 13.9 °F /  -10.1 °C 10.9 °F /  -11.7 °C 1022.9 in /  34635.4 hPa SW 9.7 mph /  15.6 km/h 19.3 mph /  31.1 km/h 82 % 0.0 in /  0 mm
12:17 14.1 °F /  -9.9 °C 11.4 °F /  -11.4 °C 1022.9 in /  34635.4 hPa WSW 11.3 mph /  18.2 km/h 19.3 mph /  31.1 km/h 84 % 0.0 in /  0 mm
12:27 14.3 °F /  -9.8 °C 11.1 °F /  -11.6 °C 1022.6 in /  34625.2 hPa SW 8.0 mph /  12.9 km/h 20.9 mph /  33.6 km/h 81 % 0.0 in /  0 mm
12:32 14.8 °F /  -9.6 °C 11.8 °F /  -11.2 °C 1022.2 in /  34611.7 hPa SW 16.1 mph /  25.9 km/h 20.9 mph /  33.6 km/h 82 % 0.0 in /  0 mm
12:42 15.3 °F /  -9.3 °C 11.3 °F /  -11.5 °C 1022.6 in /  34625.2 hPa WSW 14.5 mph /  23.3 km/h 24.1 mph /  38.8 km/h 77 % 0.0 in /  0 mm
12:47 15.3 °F /  -9.3 °C 11.1 °F /  -11.6 °C 1022.6 in /  34625.2 hPa SW 11.3 mph /  18.2 km/h 24.1 mph /  38.8 km/h 76 % 0.0 in /  0 mm
12:52 15.6 °F /  -9.1 °C 11.4 °F /  -11.4 °C 1022.6 in /  34625.2 hPa SW 6.4 mph /  10.3 km/h 20.9 mph /  33.6 km/h 76 % 0.0 in /  0 mm
13:02 16.0 °F /  -8.9 °C 11.2 °F /  -11.6 °C 1022.9 in /  34635.4 hPa West 9.7 mph /  15.6 km/h 20.9 mph /  33.6 km/h 73 % 0.0 in /  0 mm
13:07 16.2 °F /  -8.8 °C 10.9 °F /  -11.7 °C 1022.9 in /  34635.4 hPa WSW 12.9 mph /  20.8 km/h 19.3 mph /  31.1 km/h 71 % 0.0 in /  0 mm
13:12 16.4 °F /  -8.7 °C 11.3 °F /  -11.5 °C 1022.9 in /  34635.4 hPa WNW 14.5 mph /  23.3 km/h 24.1 mph /  38.8 km/h 72 % 0.0 in /  0 mm
13:17 16.6 °F /  -8.6 °C 11.3 °F /  -11.5 °C 1022.9 in /  34635.4 hPa WSW 20.9 mph /  33.6 km/h 24.1 mph /  38.8 km/h 71 % 0.0 in /  0 mm
13:22 16.6 °F /  -8.6 °C 10.9 °F /  -11.7 °C 1022.6 in /  34625.2 hPa WSW 6.4 mph /  10.3 km/h 22.5 mph /  36.2 km/h 69 % 0.0 in /  0 mm
13:27 16.8 °F /  -8.4 °C 11.1 °F /  -11.6 °C 1022.6 in /  34625.2 hPa WSW 4.8 mph /  7.7 km/h 22.5 mph /  36.2 km/h 69 % 0.0 in /  0 mm
13:32 16.9 °F /  -8.4 °C 10.7 °F /  -11.8 °C 1022.2 in /  34611.7 hPa SW 1.6 mph /  2.6 km/h 22.5 mph /  36.2 km/h 67 % 0.0 in /  0 mm
13:37 17.1 °F /  -8.3 °C 10.7 °F /  -11.8 °C 1022.2 in /  34611.7 hPa WSW 6.4 mph /  10.3 km/h 22.5 mph /  36.2 km/h 66 % 0.0 in /  0 mm
13:42 17.4 °F /  -8.1 °C 11.2 °F /  -11.6 °C 1022.2 in /  34611.7 hPa SW 16.1 mph /  25.9 km/h 20.9 mph /  33.6 km/h 67 % 0.0 in /  0 mm
13:47 17.5 °F /  -8.1 °C 11.1 °F /  -11.6 °C 1022.2 in /  34611.7 hPa SSW 11.3 mph /  18.2 km/h 20.9 mph /  33.6 km/h 66 % 0.0 in /  0 mm
13:57 17.9 °F /  -7.8 °C 10.0 °F /  -12.2 °C 1022.2 in /  34611.7 hPa WSW 11.3 mph /  18.2 km/h 20.9 mph /  33.6 km/h 60 % 0.0 in /  0 mm
14:02 17.8 °F /  -7.9 °C 10.2 °F /  -12.1 °C 1022.2 in /  34611.7 hPa West 12.9 mph /  20.8 km/h 17.7 mph /  28.5 km/h 61 % 0.0 in /  0 mm
14:07 17.8 °F /  -7.9 °C 9.9 °F /  -12.3 °C 1022.2 in /  34611.7 hPa SW 9.7 mph /  15.6 km/h 22.5 mph /  36.2 km/h 60 % 0.0 in /  0 mm
14:12 18.0 °F /  -7.8 °C 10.4 °F /  -12 °C 1021.9 in /  34601.5 hPa WSW 12.9 mph /  20.8 km/h 22.5 mph /  36.2 km/h 61 % 0.0 in /  0 mm
14:17 18.2 °F /  -7.7 °C 10.3 °F /  -12.1 °C 1021.9 in /  34601.5 hPa West 8.0 mph /  12.9 km/h 22.5 mph /  36.2 km/h 60 % 0.0 in /  0 mm
14:22 18.1 °F /  -7.7 °C 9.7 °F /  -12.4 °C 1021.9 in /  34601.5 hPa West 16.1 mph /  25.9 km/h 19.3 mph /  31.1 km/h 58 % 0.0 in /  0 mm
14:27 17.9 °F /  -7.8 °C 9.5 °F /  -12.5 °C 1021.6 in /  34591.4 hPa WSW 11.3 mph /  18.2 km/h 22.5 mph /  36.2 km/h 58 % 0.0 in /  0 mm
14:32 18.2 °F /  -7.7 °C 10.3 °F /  -12.1 °C 1021.6 in /  34591.4 hPa WSW 14.5 mph /  23.3 km/h 22.5 mph /  36.2 km/h 60 % 0.0 in /  0 mm
14:37 18.3 °F /  -7.6 °C 9.9 °F /  -12.3 °C 1021.6 in /  34591.4 hPa SW 8.0 mph /  12.9 km/h 22.5 mph /  36.2 km/h 58 % 0.0 in /  0 mm
14:42 18.3 °F /  -7.6 °C 9.6 °F /  -12.4 °C 1021.6 in /  34591.4 hPa WSW 9.7 mph /  15.6 km/h 17.7 mph /  28.5 km/h 57 % 0.0 in /  0 mm
14:47 18.3 °F /  -7.6 °C 9.6 °F /  -12.4 °C 1021.6 in /  34591.4 hPa WNW 6.4 mph /  10.3 km/h 22.5 mph /  36.2 km/h 57 % 0.0 in /  0 mm
14:52 18.4 °F /  -7.6 °C 10.0 °F /  -12.2 °C 1021.2 in /  34577.8 hPa WSW 4.8 mph /  7.7 km/h 22.5 mph /  36.2 km/h 58 % 0.0 in /  0 mm
14:57 18.6 °F /  -7.4 °C 10.2 °F /  -12.1 °C 1021.2 in /  34577.8 hPa West 12.9 mph /  20.8 km/h 19.3 mph /  31.1 km/h 58 % 0.0 in /  0 mm
15:02 18.7 °F /  -7.4 °C 10.0 °F /  -12.2 °C 1020.9 in /  34567.7 hPa WSW 16.1 mph /  25.9 km/h 17.7 mph /  28.5 km/h 57 % 0.0 in /  0 mm
15:07 18.8 °F /  -7.3 °C 10.6 °F /  -11.9 °C 1020.9 in /  34567.7 hPa SSW 6.4 mph /  10.3 km/h 19.3 mph /  31.1 km/h 59 % 0.0 in /  0 mm
15:12 18.8 °F /  -7.3 °C 10.1 °F /  -12.2 °C 1020.9 in /  34567.7 hPa SSW 11.3 mph /  18.2 km/h 20.9 mph /  33.6 km/h 57 % 0.0 in /  0 mm
15:17 18.8 °F /  -7.3 °C 9.8 °F /  -12.3 °C 1020.9 in /  34567.7 hPa West 14.5 mph /  23.3 km/h 20.9 mph /  33.6 km/h 56 % 0.0 in /  0 mm
15:22 18.9 °F /  -7.3 °C 9.4 °F /  -12.6 °C 1020.9 in /  34567.7 hPa WNW 4.8 mph /  7.7 km/h 20.9 mph /  33.6 km/h 54 % 0.0 in /  0 mm
15:32 19.2 °F /  -7.1 °C 9.7 °F /  -12.4 °C 1020.9 in /  34567.7 hPa WNW 8.0 mph /  12.9 km/h 17.7 mph /  28.5 km/h 54 % 0.0 in /  0 mm
15:37 19.2 °F /  -7.1 °C 9.9 °F /  -12.3 °C 1020.9 in /  34567.7 hPa WNW 11.3 mph /  18.2 km/h 20.9 mph /  33.6 km/h 55 % 0.0 in /  0 mm
15:42 19.2 °F /  -7.1 °C 9.9 °F /  -12.3 °C 1020.9 in /  34567.7 hPa NW 9.7 mph /  15.6 km/h 20.9 mph /  33.6 km/h 55 % 0.0 in /  0 mm
15:47 19.4 °F /  -7 °C 10.9 °F /  -11.7 °C 1020.9 in /  34567.7 hPa WSW 14.5 mph /  23.3 km/h 20.9 mph /  33.6 km/h 58 % 0.0 in /  0 mm
15:52 19.5 °F /  -6.9 °C 10.5 °F /  -11.9 °C 1020.9 in /  34567.7 hPa West 8.0 mph /  12.9 km/h 20.9 mph /  33.6 km/h 56 % 0.0 in /  0 mm
15:57 19.4 °F /  -7 °C 10.1 °F /  -12.2 °C 1020.9 in /  34567.7 hPa WSW 11.3 mph /  18.2 km/h 17.7 mph /  28.5 km/h 55 % 0.0 in /  0 mm
16:02 19.5 °F /  -6.9 °C 10.2 °F /  -12.1 °C 1020.9 in /  34567.7 hPa WNW 9.7 mph /  15.6 km/h 20.9 mph /  33.6 km/h 55 % 0.0 in /  0 mm
16:12 19.3 °F /  -7.1 °C 10.3 °F /  -12.1 °C 1020.9 in /  34567.7 hPa WNW 9.7 mph /  15.6 km/h 25.7 mph /  41.4 km/h 56 % 0.0 in /  0 mm
16:17 19.2 °F /  -7.1 °C 10.5 °F /  -11.9 °C 1020.9 in /  34567.7 hPa West 11.3 mph /  18.2 km/h 25.7 mph /  41.4 km/h 57 % 0.0 in /  0 mm
16:27 19.1 °F /  -7.2 °C 11.2 °F /  -11.6 °C 1020.9 in /  34567.7 hPa SW 14.5 mph /  23.3 km/h 19.3 mph /  31.1 km/h 60 % 0.0 in /  0 mm
16:32 19.2 °F /  -7.1 °C 10.7 °F /  -11.8 °C 1020.9 in /  34567.7 hPa WSW 11.3 mph /  18.2 km/h 20.9 mph /  33.6 km/h 58 % 0.0 in /  0 mm
16:37 19.3 °F /  -7.1 °C 11.1 °F /  -11.6 °C 1020.5 in /  34554.1 hPa West 12.9 mph /  20.8 km/h 20.9 mph /  33.6 km/h 59 % 0.0 in /  0 mm
16:42 19.3 °F /  -7.1 °C 10.8 °F /  -11.8 °C 1020.5 in /  34554.1 hPa West 6.4 mph /  10.3 km/h 20.9 mph /  33.6 km/h 58 % 0.0 in /  0 mm
16:47 19.1 °F /  -7.2 °C 10.9 °F /  -11.7 °C 1020.9 in /  34567.7 hPa WSW 12.9 mph /  20.8 km/h 19.3 mph /  31.1 km/h 59 % 0.0 in /  0 mm
16:52 19.0 °F /  -7.2 °C 11.1 °F /  -11.6 °C 1020.9 in /  34567.7 hPa WSW 16.1 mph /  25.9 km/h 19.3 mph /  31.1 km/h 60 % 0.0 in /  0 mm
16:57 18.8 °F /  -7.3 °C 10.9 °F /  -11.7 °C 1020.5 in /  34554.1 hPa WSW 6.4 mph /  10.3 km/h 20.9 mph /  33.6 km/h 60 % 0.0 in /  0 mm
17:02 18.7 °F /  -7.4 °C 11.0 °F /  -11.7 °C 1020.5 in /  34554.1 hPa West 14.5 mph /  23.3 km/h 20.9 mph /  33.6 km/h 61 % 0.0 in /  0 mm
17:07 18.7 °F /  -7.4 °C 11.0 °F /  -11.7 °C 1020.5 in /  34554.1 hPa WSW 11.3 mph /  18.2 km/h 19.3 mph /  31.1 km/h 61 % 0.0 in /  0 mm
17:12 18.7 °F /  -7.4 °C 11.3 °F /  -11.5 °C 1020.5 in /  34554.1 hPa WSW 8.0 mph /  12.9 km/h 19.3 mph /  31.1 km/h 62 % 0.0 in /  0 mm
17:17 18.9 °F /  -7.3 °C 11.5 °F /  -11.4 °C 1020.5 in /  34554.1 hPa West 11.3 mph /  18.2 km/h 19.3 mph /  31.1 km/h 62 % 0.0 in /  0 mm
17:32 18.8 °F /  -7.3 °C 11.4 °F /  -11.4 °C 1020.5 in /  34554.1 hPa West 8.0 mph /  12.9 km/h 22.5 mph /  36.2 km/h 62 % 0.0 in /  0 mm
17:37 18.7 °F /  -7.4 °C 11.3 °F /  -11.5 °C 1020.5 in /  34554.1 hPa NW 11.3 mph /  18.2 km/h 22.5 mph /  36.2 km/h 62 % 0.0 in /  0 mm
17:42 18.6 °F /  -7.4 °C 11.4 °F /  -11.4 °C 1020.9 in /  34567.7 hPa West 4.8 mph /  7.7 km/h 20.9 mph /  33.6 km/h 63 % 0.0 in /  0 mm
17:47 18.6 °F /  -7.4 °C 11.4 °F /  -11.4 °C 1020.9 in /  34567.7 hPa WNW 12.9 mph /  20.8 km/h 20.9 mph /  33.6 km/h 63 % 0.0 in /  0 mm
17:52 18.5 °F /  -7.5 °C 11.3 °F /  -11.5 °C 1020.5 in /  34554.1 hPa WSW 12.9 mph /  20.8 km/h 19.3 mph /  31.1 km/h 63 % 0.0 in /  0 mm
17:57 18.4 °F /  -7.6 °C 11.5 °F /  -11.4 °C 1020.5 in /  34554.1 hPa WNW 25.7 mph /  41.4 km/h 25.7 mph /  41.4 km/h 64 % 0.0 in /  0 mm
18:07 18.2 °F /  -7.7 °C 11.5 °F /  -11.4 °C 1020.5 in /  34554.1 hPa West 14.5 mph /  23.3 km/h 27.4 mph /  44.1 km/h 65 % 0.0 in /  0 mm
18:12 18.1 °F /  -7.7 °C 11.6 °F /  -11.3 °C 1020.5 in /  34554.1 hPa West 11.3 mph /  18.2 km/h 27.4 mph /  44.1 km/h 66 % 0.0 in /  0 mm
18:17 18.1 °F /  -7.7 °C 11.6 °F /  -11.3 °C 1020.5 in /  34554.1 hPa WSW 11.3 mph /  18.2 km/h 24.1 mph /  38.8 km/h 66 % 0.0 in /  0 mm
18:22 17.9 °F /  -7.8 °C 11.7 °F /  -11.3 °C 1020.5 in /  34554.1 hPa West 8.0 mph /  12.9 km/h 24.1 mph /  38.8 km/h 67 % 0.0 in /  0 mm
18:32 17.7 °F /  -7.9 °C 11.9 °F /  -11.2 °C 1020.5 in /  34554.1 hPa WNW 8.0 mph /  12.9 km/h 19.3 mph /  31.1 km/h 69 % 0.0 in /  0 mm
18:42 17.5 °F /  -8.1 °C 12.2 °F /  -11 °C 1020.5 in /  34554.1 hPa West 11.3 mph /  18.2 km/h 19.3 mph /  31.1 km/h 71 % 0.0 in /  0 mm
18:47 17.4 °F /  -8.1 °C 12.3 °F /  -10.9 °C 1020.5 in /  34554.1 hPa West 9.7 mph /  15.6 km/h 24.1 mph /  38.8 km/h 72 % 0.0 in /  0 mm
18:52 17.4 °F /  -8.1 °C 12.3 °F /  -10.9 °C 1020.5 in /  34554.1 hPa WSW 6.4 mph /  10.3 km/h 24.1 mph /  38.8 km/h 72 % 0.0 in /  0 mm
19:02 17.2 °F /  -8.2 °C 12.3 °F /  -10.9 °C 1020.5 in /  34554.1 hPa SW 9.7 mph /  15.6 km/h 14.5 mph /  23.3 km/h 73 % 0.0 in /  0 mm
19:07 17.1 °F /  -8.3 °C 12.4 °F /  -10.9 °C 1020.5 in /  34554.1 hPa West 6.4 mph /  10.3 km/h 14.5 mph /  23.3 km/h 74 % 0.0 in /  0 mm
19:12 17.1 °F /  -8.3 °C 12.4 °F /  -10.9 °C 1020.9 in /  34567.7 hPa WNW 4.8 mph /  7.7 km/h 14.5 mph /  23.3 km/h 74 % 0.0 in /  0 mm
19:17 17.0 °F /  -8.3 °C 12.5 °F /  -10.8 °C 1020.9 in /  34567.7 hPa WNW 4.8 mph /  7.7 km/h 14.5 mph /  23.3 km/h 75 % 0.0 in /  0 mm
19:22 16.9 °F /  -8.4 °C 12.6 °F /  -10.8 °C 1020.9 in /  34567.7 hPa West 4.8 mph /  7.7 km/h 14.5 mph /  23.3 km/h 76 % 0.0 in /  0 mm
19:27 16.8 °F /  -8.4 °C 12.5 °F /  -10.8 °C 1020.9 in /  34567.7 hPa West 14.5 mph /  23.3 km/h 16.1 mph /  25.9 km/h 76 % 0.0 in /  0 mm
19:32 16.7 °F /  -8.5 °C 12.6 °F /  -10.8 °C 1020.9 in /  34567.7 hPa WNW 14.5 mph /  23.3 km/h 19.3 mph /  31.1 km/h 77 % 0.0 in /  0 mm
19:37 16.6 °F /  -8.6 °C 12.9 °F /  -10.6 °C 1020.9 in /  34567.7 hPa WNW 6.4 mph /  10.3 km/h 22.5 mph /  36.2 km/h 79 % 0.0 in /  0 mm
19:42 16.3 °F /  -8.7 °C 12.8 °F /  -10.7 °C 1021.2 in /  34577.8 hPa WSW 4.8 mph /  7.7 km/h 22.5 mph /  36.2 km/h 80 % 0.0 in /  0 mm
19:47 16.1 °F /  -8.8 °C 13.0 °F /  -10.6 °C 1021.2 in /  34577.8 hPa West 8.0 mph /  12.9 km/h 24.1 mph /  38.8 km/h 82 % 0.0 in /  0 mm
19:52 15.9 °F /  -8.9 °C 12.8 °F /  -10.7 °C 1021.2 in /  34577.8 hPa NW 14.5 mph /  23.3 km/h 24.1 mph /  38.8 km/h 82 % 0.0 in /  0 mm
19:57 15.7 °F /  -9.1 °C 12.8 °F /  -10.7 °C 1021.2 in /  34577.8 hPa NW 12.9 mph /  20.8 km/h 29.0 mph /  46.7 km/h 83 % 0.0 in /  0 mm
20:02 15.4 °F /  -9.2 °C 12.9 °F /  -10.6 °C 1021.2 in /  34577.8 hPa West 16.1 mph /  25.9 km/h 29.0 mph /  46.7 km/h 85 % 0.0 in /  0 mm
20:07 15.2 °F /  -9.3 °C 12.9 °F /  -10.6 °C 1021.6 in /  34591.4 hPa WNW 11.3 mph /  18.2 km/h 25.7 mph /  41.4 km/h 86 % 0.0 in /  0 mm
20:12 14.9 °F /  -9.5 °C 12.8 °F /  -10.7 °C 1021.6 in /  34591.4 hPa WNW 8.0 mph /  12.9 km/h 27.4 mph /  44.1 km/h 87 % 0.0 in /  0 mm
20:22 14.7 °F /  -9.6 °C 12.9 °F /  -10.6 °C 1021.6 in /  34591.4 hPa West 3.2 mph /  5.1 km/h 22.5 mph /  36.2 km/h 89 % 0.0 in /  0 mm
20:27 14.6 °F /  -9.7 °C 12.6 °F /  -10.8 °C 1021.6 in /  34591.4 hPa WSW 12.9 mph /  20.8 km/h 19.3 mph /  31.1 km/h 88 % 0.0 in /  0 mm
20:32 14.6 °F /  -9.7 °C 12.6 °F /  -10.8 °C 1021.6 in /  34591.4 hPa WNW 14.5 mph /  23.3 km/h 20.9 mph /  33.6 km/h 88 % 0.0 in /  0 mm
20:37 14.6 °F /  -9.7 °C 12.6 °F /  -10.8 °C 1021.6 in /  34591.4 hPa WNW 8.0 mph /  12.9 km/h 20.9 mph /  33.6 km/h 88 % 0.0 in /  0 mm
20:42 14.4 °F /  -9.8 °C 12.6 °F /  -10.8 °C 1021.6 in /  34591.4 hPa WNW 6.4 mph /  10.3 km/h 20.9 mph /  33.6 km/h 89 % 0.0 in /  0 mm
20:47 14.3 °F /  -9.8 °C 12.5 °F /  -10.8 °C 1021.6 in /  34591.4 hPa WNW 12.9 mph /  20.8 km/h 20.9 mph /  33.6 km/h 89 % 0.0 in /  0 mm
20:52 14.2 °F /  -9.9 °C 12.4 °F /  -10.9 °C 1021.6 in /  34591.4 hPa WNW 9.7 mph /  15.6 km/h 17.7 mph /  28.5 km/h 89 % 0.0 in /  0 mm
20:57 14.2 °F /  -9.9 °C 12.4 °F /  -10.9 °C 1021.6 in /  34591.4 hPa West 11.3 mph /  18.2 km/h 17.7 mph /  28.5 km/h 89 % 0.0 in /  0 mm
21:07 14.1 °F /  -9.9 °C 12.5 °F /  -10.8 °C 1021.6 in /  34591.4 hPa Calm   20.9 mph /  33.6 km/h 90 % 0.0 in /  0 mm
21:12 14.1 °F /  -9.9 °C 12.5 °F /  -10.8 °C 1021.6 in /  34591.4 hPa North 14.5 mph /  23.3 km/h 14.5 mph /  23.3 km/h 90 % 0.0 in /  0 mm
21:17 14.1 °F /  -9.9 °C 12.5 °F /  -10.8 °C 1021.6 in /  34591.4 hPa NW 11.3 mph /  18.2 km/h 20.9 mph /  33.6 km/h 90 % 0.0 in /  0 mm
21:22 14.0 °F /  -10 °C 12.6 °F /  -10.8 °C 1021.6 in /  34591.4 hPa NW 12.9 mph /  20.8 km/h 20.9 mph /  33.6 km/h 91 % 0.0 in /  0 mm
21:27 14.0 °F /  -10 °C 12.6 °F /  -10.8 °C 1021.6 in /  34591.4 hPa WNW 4.8 mph /  7.7 km/h 20.9 mph /  33.6 km/h 91 % 0.0 in /  0 mm
21:32 13.9 °F /  -10.1 °C 12.6 °F /  -10.8 °C 1021.6 in /  34591.4 hPa WNW 4.8 mph /  7.7 km/h 19.3 mph /  31.1 km/h 92 % 0.0 in /  0 mm
21:42 13.8 °F /  -10.1 °C 12.5 °F /  -10.8 °C 1021.6 in /  34591.4 hPa WSW 8.0 mph /  12.9 km/h 14.5 mph /  23.3 km/h 92 % 0.0 in /  0 mm
21:47 13.8 °F /  -10.1 °C 12.5 °F /  -10.8 °C 1021.6 in /  34591.4 hPa Calm   14.5 mph /  23.3 km/h 92 % 0.0 in /  0 mm
21:52 13.8 °F /  -10.1 °C 12.5 °F /  -10.8 °C 1021.6 in /  34591.4 hPa WNW 3.2 mph /  5.1 km/h 14.5 mph /  23.3 km/h 92 % 0.0 in /  0 mm
22:02 13.7 °F /  -10.2 °C 12.6 °F /  -10.8 °C 1021.6 in /  34591.4 hPa NNW 8.0 mph /  12.9 km/h 17.7 mph /  28.5 km/h 93 % 0.0 in /  0 mm
22:12 13.7 °F /  -10.2 °C 12.6 °F /  -10.8 °C 1021.6 in /  34591.4 hPa NNW 3.2 mph /  5.1 km/h 19.3 mph /  31.1 km/h 93 % 0.0 in /  0 mm
22:17 13.7 °F /  -10.2 °C 12.6 °F /  -10.8 °C 1021.9 in /  34601.5 hPa WSW 9.7 mph /  15.6 km/h 19.3 mph /  31.1 km/h 93 % 0.0 in /  0 mm
22:22 13.6 °F /  -10.2 °C 12.5 °F /  -10.8 °C 1021.9 in /  34601.5 hPa WNW 6.4 mph /  10.3 km/h 16.1 mph /  25.9 km/h 93 % 0.0 in /  0 mm
22:27 13.6 °F /  -10.2 °C 12.5 °F /  -10.8 °C 1021.9 in /  34601.5 hPa NNW 8.0 mph /  12.9 km/h 17.7 mph /  28.5 km/h 93 % 0.0 in /  0 mm
22:32 13.6 °F /  -10.2 °C 12.7 °F /  -10.7 °C 1021.9 in /  34601.5 hPa West 4.8 mph /  7.7 km/h 17.7 mph /  28.5 km/h 94 % 0.0 in /  0 mm
22:37 13.6 °F /  -10.2 °C 12.7 °F /  -10.7 °C 1021.9 in /  34601.5 hPa West 9.7 mph /  15.6 km/h 17.7 mph /  28.5 km/h 94 % 0.0 in /  0 mm
22:42 13.6 °F /  -10.2 °C 12.7 °F /  -10.7 °C 1021.9 in /  34601.5 hPa WNW 14.5 mph /  23.3 km/h 16.1 mph /  25.9 km/h 94 % 0.0 in /  0 mm
22:47 13.6 °F /  -10.2 °C 12.7 °F /  -10.7 °C 1021.9 in /  34601.5 hPa NW 8.0 mph /  12.9 km/h 16.1 mph /  25.9 km/h 94 % 0.0 in /  0 mm
22:52 13.6 °F /  -10.2 °C 12.7 °F /  -10.7 °C 1021.9 in /  34601.5 hPa WSW 3.2 mph /  5.1 km/h 16.1 mph /  25.9 km/h 94 % 0.0 in /  0 mm
23:02 13.6 °F /  -10.2 °C 12.7 °F /  -10.7 °C 1022.2 in /  34611.7 hPa WNW 8.0 mph /  12.9 km/h 12.9 mph /  20.8 km/h 94 % 0.0 in /  0 mm
23:07 13.6 °F /  -10.2 °C 12.7 °F /  -10.7 °C 1021.9 in /  34601.5 hPa West 4.8 mph /  7.7 km/h 12.9 mph /  20.8 km/h 94 % 0.0 in /  0 mm
23:12 13.5 °F /  -10.3 °C 12.6 °F /  -10.8 °C 1022.2 in /  34611.7 hPa WNW 6.4 mph /  10.3 km/h 14.5 mph /  23.3 km/h 94 % 0.0 in /  0 mm
23:17 13.6 °F /  -10.2 °C 12.7 °F /  -10.7 °C 1022.2 in /  34611.7 hPa WSW 8.0 mph /  12.9 km/h 14.5 mph /  23.3 km/h 94 % 0.0 in /  0 mm
23:22 13.5 °F /  -10.3 °C 12.6 °F /  -10.8 °C 1022.2 in /  34611.7 hPa NW 12.9 mph /  20.8 km/h 14.5 mph /  23.3 km/h 94 % 0.0 in /  0 mm
23:27 13.5 °F /  -10.3 °C 12.6 °F /  -10.8 °C 1022.2 in /  34611.7 hPa WNW 4.8 mph /  7.7 km/h 14.5 mph /  23.3 km/h 94 % 0.0 in /  0 mm
23:37 13.5 °F /  -10.3 °C 12.6 °F /  -10.8 °C 1022.2 in /  34611.7 hPa NW 4.8 mph /  7.7 km/h 12.9 mph /  20.8 km/h 94 % 0.0 in /  0 mm
23:42 13.5 °F /  -10.3 °C 12.6 °F /  -10.8 °C 1022.2 in /  34611.7 hPa SW 1.6 mph /  2.6 km/h 11.3 mph /  18.2 km/h 94 % 0.0 in /  0 mm
23:47 13.6 °F /  -10.2 °C 12.7 °F /  -10.7 °C 1022.2 in /  34611.7 hPa WNW 8.0 mph /  12.9 km/h 16.1 mph /  25.9 km/h 94 % 0.0 in /  0 mm
23:52 13.5 °F /  -10.3 °C 12.6 °F /  -10.8 °C 1022.2 in /  34611.7 hPa NW 4.8 mph /  7.7 km/h 16.1 mph /  25.9 km/h 94 % 0.0 in /  0 mm
Meteo18
Compliments of Weather Underground - 4 mb

Script developed by  Jim McMurry - jmcmurry@mwt.net Adapted for the template by  Wim van der Kuil - Leuven-Template.eu

You find our weather info also at:

European Weather Network

Weather Underground

Equipment we use:

Weather-station
Davis Vue

Weather-program
Meteobridge

Weather-server
Raspberry PI 2 B+

Provider
1 and 1

Davis Vue

Meteobridge

Raspberry PI 2 B+

1 and 1